Time;durP1;ratioP1;P1;durP2;ratioP2;P2;SDS_P1;SDS_P2;PMS_P1;PMS_P2;Temp;Humidity;BMP_temperature;BMP_pressure;BME280_temperature;BME280_humidity;BME280_pressure;Samples;Min_cycle;Max_cycle;Signal;HPM_P1;HPM_P2
2021/03/10 00:04:08;;;;;;;43.37;20.23;;;;;;;3.92;100.00;94469.78;10304012;28;20060;-77
2021/03/10 00:09:09;;;;;;;37.75;20.20;;;;;;;3.87;100.00;94453.75;10291688;28;20561;-77
2021/03/10 00:14:10;;;;;;;43.53;22.00;;;;;;;3.97;100.00;94450.47;10330291;28;20109;-77
2021/03/10 00:19:10;;;;;;;38.67;20.55;;;;;;;3.91;100.00;94452.25;10331907;28;20030;-77
2021/03/10 00:24:11;;;;;;;41.80;21.47;;;;;;;3.77;100.00;94457.03;10331334;28;20100;-77
2021/03/10 00:29:19;;;;;;;37.35;20.80;;;;;;;3.73;100.00;94434.63;10345199;28;20288;-77
2021/03/10 00:34:19;;;;;;;48.67;22.95;;;;;;;3.68;100.00;94422.03;10330184;28;20505;-77
2021/03/10 00:39:20;;;;;;;43.10;22.23;;;;;;;3.75;100.00;94422.72;10326447;28;20062;-77
2021/03/10 00:44:20;;;;;;;50.97;24.50;;;;;;;3.68;100.00;94413.28;10330631;28;20036;-78
2021/03/10 00:49:20;;;;;;;49.10;24.53;;;;;;;3.64;100.00;94398.84;10331538;28;20116;-78
2021/03/10 00:54:21;;;;;;;50.07;24.93;;;;;;;3.61;100.00;94410.75;10330205;28;20026;-78
2021/03/10 00:59:21;;;;;;;48.53;24.25;;;;;;;3.61;100.00;94399.31;10330445;28;20393;-78
2021/03/10 01:04:22;;;;;;;45.23;25.40;;;;;;;3.65;100.00;94400.47;10330171;28;20049;-78
2021/03/10 01:09:22;;;;;;;56.65;25.95;;;;;;;3.58;100.00;94380.13;10328718;28;20356;-78
2021/03/10 01:14:23;;;;;;;55.22;26.48;;;;;;;3.63;100.00;94375.97;10323516;28;20088;-78
2021/03/10 01:19:23;;;;;;;48.85;23.05;;;;;;;3.40;100.00;94373.19;10321527;28;20080;-78
2021/03/10 01:24:24;;;;;;;56.40;26.13;;;;;;;3.41;100.00;94368.69;10325073;28;20031;-79
2021/03/10 01:29:24;;;;;;;65.97;30.40;;;;;;;3.47;100.00;94367.72;10320129;28;20122;-78
2021/03/10 01:34:24;;;;;;;55.97;26.73;;;;;;;3.46;100.00;94357.31;10322360;28;20023;-77
2021/03/10 01:39:25;;;;;;;59.73;29.10;;;;;;;3.04;100.00;94364.53;10334302;28;20054;-77
2021/03/10 01:44:25;;;;;;;68.60;28.10;;;;;;;2.93;100.00;94367.19;10337173;28;20092;-77
2021/03/10 01:49:26;;;;;;;63.70;29.23;;;;;;;2.96;100.00;94356.94;10311416;28;20101;-78
2021/03/10 01:54:27;;;;;;;57.00;28.88;;;;;;;3.00;100.00;94357.25;10295358;28;20655;-78
2021/03/10 01:59:27;;;;;;;65.60;29.98;;;;;;;2.92;100.00;94347.81;10296178;28;20109;-78
2021/03/10 02:04:28;;;;;;;66.00;28.95;;;;;;;2.96;100.00;94337.53;10294655;28;20030;-78
2021/03/10 02:09:53;;;;;;;63.80;30.50;;;;;;;2.95;100.00;94334.06;10295119;28;20029;-78
2021/03/10 02:15:04;;;;;;;63.75;31.08;;;;;;;3.05;100.00;94313.03;10295749;28;20485;-78
2021/03/10 02:20:27;;;;;;;64.82;29.88;;;;;;;3.15;100.00;94315.06;10295619;28;20030;-78
2021/03/10 02:25:28;;;;;;;61.13;31.90;;;;;;;3.20;100.00;94304.53;10293539;28;20035;-78
2021/03/10 02:30:34;;;;;;;67.43;31.47;;;;;;;3.25;100.00;94301.16;10293810;28;20602;-79
2021/03/10 02:35:39;;;;;;;69.80;32.50;;;;;;;3.06;100.00;94297.91;10294732;28;20907;-78
2021/03/10 02:40:39;;;;;;;69.72;31.52;;;;;;;2.96;100.00;94303.00;10293028;28;20073;-79
2021/03/10 02:45:42;;;;;;;67.07;29.27;;;;;;;2.73;100.00;94289.59;10293884;28;20027;-78
2021/03/10 02:50:43;;;;;;;70.18;30.40;;;;;;;2.54;100.00;94285.47;10293348;28;20034;-77
2021/03/10 02:55:45;;;;;;;72.88;32.10;;;;;;;2.63;100.00;94277.97;10292937;28;20023;-78
2021/03/10 03:00:45;;;;;;;64.78;29.50;;;;;;;2.45;100.00;94277.06;10295046;28;20437;-77
2021/03/10 03:05:45;;;;;;;74.88;32.63;;;;;;;2.31;100.00;94268.56;10294183;28;20149;-78
2021/03/10 03:10:46;;;;;;;79.87;33.83;;;;;;;2.26;100.00;94276.44;10293414;28;20033;-78
2021/03/10 03:15:55;;;;;;;88.22;33.83;;;;;;;2.33;100.00;94269.16;10293343;28;20424;-78
2021/03/10 03:20:59;;;;;;;69.65;31.23;;;;;;;2.38;100.00;94263.13;10292967;28;20035;-78
2021/03/10 03:26:01;;;;;;;70.10;32.20;;;;;;;2.41;100.00;94267.97;10293019;28;20027;-77
2021/03/10 03:31:03;;;;;;;73.20;31.88;;;;;;;2.22;100.00;94265.47;10293286;28;20050;-77
2021/03/10 03:36:04;;;;;;;76.25;28.77;;;;;;;2.26;100.00;94268.47;10291225;28;20109;-77
2021/03/10 03:41:05;;;;;;;63.83;27.98;;;;;;;2.25;100.00;94263.38;10292406;28;20471;-77
2021/03/10 03:46:07;;;;;;;45.88;23.05;;;;;;;2.26;100.00;94271.13;10292075;28;20034;-77
2021/03/10 03:51:23;;;;;;;56.78;23.83;;;;;;;2.28;100.00;94265.59;10290370;28;20023;-77
2021/03/10 03:56:28;;;;;;;44.47;21.17;;;;;;;2.38;100.00;94268.44;10290465;28;20023;-77
2021/03/10 04:01:28;;;;;;;33.90;17.92;;;;;;;2.33;100.00;94269.16;10290407;28;20542;-77
2021/03/10 04:06:28;;;;;;;38.03;17.67;;;;;;;2.25;100.00;94261.56;10290986;28;20085;-77
2021/03/10 04:11:29;;;;;;;47.17;19.43;;;;;;;2.16;100.00;94258.47;10290815;28;20019;-77
2021/03/10 04:16:29;;;;;;;48.97;24.80;;;;;;;2.15;100.00;94250.72;10290541;28;20498;-77
2021/03/10 04:21:30;;;;;;;58.37;25.60;;;;;;;2.14;100.00;94249.91;10289125;28;20113;-78
2021/03/10 04:26:30;;;;;;;59.80;28.52;;;;;;;2.35;100.00;94247.69;10290062;28;20337;-77
2021/03/10 04:31:31;;;;;;;47.47;20.50;;;;;;;2.29;100.00;94248.63;10305437;28;20121;-77
2021/03/10 04:36:31;;;;;;;61.20;27.10;;;;;;;2.22;100.00;94248.78;10290503;28;20041;-77
2021/03/10 04:41:32;;;;;;;61.87;26.60;;;;;;;2.22;100.00;94241.59;10284352;28;20051;-74
2021/03/10 04:46:32;;;;;;;63.83;29.57;;;;;;;2.20;100.00;94248.19;10282311;28;20286;-74
2021/03/10 04:51:32;;;;;;;62.97;27.47;;;;;;;2.21;100.00;94232.03;10283839;28;20340;-77
2021/03/10 04:56:32;;;;;;;54.20;25.63;;;;;;;2.17;100.00;94236.19;10288759;28;20030;-78
2021/03/10 05:01:33;;;;;;;67.57;28.83;;;;;;;2.21;100.00;94224.09;10290361;28;20023;-79
2021/03/10 05:06:34;;;;;;;59.53;27.33;;;;;;;2.16;100.00;94239.06;10286996;28;20375;-79
2021/03/10 05:11:34;;;;;;;59.08;27.95;;;;;;;2.15;100.00;94240.09;10303129;28;20022;-80
2021/03/10 05:16:35;;;;;;;54.25;24.38;;;;;;;2.12;100.00;94240.59;10289851;28;20492;-80
2021/03/10 05:21:35;;;;;;;48.17;23.77;;;;;;;1.96;100.00;94236.81;10295249;28;20033;-80
2021/03/10 05:26:39;;;;;;;44.77;21.90;;;;;;;1.88;100.00;94237.94;10326043;28;20313;-78
2021/03/10 05:31:40;;;;;;;46.72;21.20;;;;;;;1.84;100.00;94232.31;10289034;28;20023;-78
2021/03/10 05:36:40;;;;;;;49.00;23.87;;;;;;;1.77;100.00;94228.16;10304542;28;20482;-79
2021/03/10 05:41:41;;;;;;;45.28;23.33;;;;;;;1.77;100.00;94234.25;10283026;28;20685;-79
2021/03/10 05:46:41;;;;;;;46.05;19.60;;;;;;;1.75;100.00;94225.75;10284585;28;20050;-77
2021/03/10 05:51:42;;;;;;;60.57;24.13;;;;;;;1.76;100.00;94214.13;10292720;28;20022;-75
2021/03/10 05:56:43;;;;;;;33.60;16.67;;;;;;;1.67;100.00;94226.09;10320821;28;20266;-79
2021/03/10 06:01:44;;;;;;;47.10;23.60;;;;;;;1.72;100.00;94242.09;10306526;28;20282;-76
2021/03/10 06:06:44;;;;;;;53.70;24.30;;;;;;;1.64;100.00;94229.19;10310712;28;20053;-76
2021/03/10 06:11:56;;;;;;;59.28;27.77;;;;;;;1.67;100.00;94236.69;10314573;28;20098;-76
2021/03/10 06:17:08;;;;;;;54.50;25.27;;;;;;;1.64;100.00;94237.16;10307529;28;20026;-76
2021/03/10 06:22:13;;;;;;;58.25;25.90;;;;;;;1.65;100.00;94231.63;10295151;28;20053;-75
2021/03/10 06:27:20;;;;;;;55.60;27.85;;;;;;;1.53;100.00;94228.97;10327397;28;20045;-76
2021/03/10 06:32:21;;;;;;;63.50;25.37;;;;;;;1.59;100.00;94226.41;10328906;28;20053;-76
2021/03/10 06:37:29;;;;;;;55.67;23.70;;;;;;;1.59;100.00;94229.91;10332184;28;20050;-79
2021/03/10 06:42:29;;;;;;;57.05;27.38;;;;;;;1.56;100.00;94230.34;10331470;28;20137;-76
2021/03/10 06:47:37;;;;;;;53.27;24.17;;;;;;;1.70;100.00;94237.03;10334127;28;20121;-76
2021/03/10 06:52:48;;;;;;;55.03;23.90;;;;;;;1.67;100.00;94226.88;10329511;28;20320;-74
2021/03/10 06:57:49;;;;;;;44.25;23.05;;;;;;;1.74;100.00;94234.72;10326553;28;20096;-74
2021/03/10 07:02:50;;;;;;;59.88;27.67;;;;;;;1.69;100.00;94243.38;10307847;28;20041;-73
2021/03/10 07:07:52;;;;;;;66.28;30.10;;;;;;;1.64;100.00;94255.69;10308336;28;20034;-73
2021/03/10 07:12:57;;;;;;;68.95;29.67;;;;;;;1.68;100.00;94243.59;10327622;28;20059;-73
2021/03/10 07:17:58;;;;;;;63.72;31.73;;;;;;;1.63;100.00;94265.47;10325963;28;20037;-72
2021/03/10 07:23:10;;;;;;;69.18;32.78;;;;;;;1.69;100.00;94253.16;10327426;28;20031;-71
2021/03/10 07:28:15;;;;;;;59.42;26.73;;;;;;;1.66;100.00;94264.19;10303915;28;20038;-73
2021/03/10 07:33:18;;;;;;;77.20;32.05;;;;;;;1.44;100.00;94267.41;10285177;28;20026;-75
2021/03/10 07:38:20;;;;;;;76.35;33.50;;;;;;;1.46;100.00;94259.22;10285746;28;20054;-73
2021/03/10 07:43:21;;;;;;;49.58;25.58;;;;;;;1.48;100.00;94273.03;10286204;28;20089;-70
2021/03/10 07:48:29;;;;;;;76.85;35.58;;;;;;;1.38;100.00;94265.66;10285516;28;20034;-71
2021/03/10 07:53:39;;;;;;;62.25;28.45;;;;;;;1.40;100.00;94262.81;10285515;28;20025;-72
2021/03/10 07:58:39;;;;;;;77.88;34.33;;;;;;;1.45;100.00;94262.91;10309240;28;20546;-72
2021/03/10 08:03:39;;;;;;;70.13;30.10;;;;;;;1.43;100.00;94247.25;10325151;28;20172;-70
2021/03/10 08:08:42;;;;;;;69.28;26.60;;;;;;;1.43;100.00;94260.47;10306129;28;20035;-72
2021/03/10 08:13:44;;;;;;;65.88;29.08;;;;;;;1.39;100.00;94248.75;10285386;28;20031;-69
2021/03/10 08:18:46;;;;;;;68.88;28.90;;;;;;;1.50;100.00;94257.75;10322669;28;20034;-71
2021/03/10 08:23:47;;;;;;;65.63;28.90;;;;;;;1.53;100.00;94242.22;10315080;28;20064;-71
2021/03/10 08:28:48;;;;;;;62.97;29.30;;;;;;;1.50;100.00;94242.66;10323426;28;20413;-73
2021/03/10 08:33:52;;;;;;;70.70;33.40;;;;;;;1.63;100.00;94228.41;10323463;28;20032;-70
2021/03/10 08:38:53;;;;;;;66.90;32.67;;;;;;;1.61;100.00;94229.66;10323698;28;20054;-72
2021/03/10 08:44:03;;;;;;;76.07;31.27;;;;;;;1.74;100.00;94237.38;10321149;28;20038;-71
2021/03/10 08:49:03;;;;;;;77.25;34.33;;;;;;;1.79;100.00;94220.81;10317073;28;20289;-72
2021/03/10 08:54:05;;;;;;;64.65;31.38;;;;;;;1.93;100.00;94232.75;10287264;28;20037;-72
2021/03/10 08:59:07;;;;;;;55.30;28.98;;;;;;;2.03;100.00;94230.31;10310470;28;20152;-72
2021/03/10 09:04:07;;;;;;;60.03;27.67;;;;;;;2.31;100.00;94228.00;10320398;28;20425;-71
2021/03/10 09:09:10;;;;;;;57.53;28.42;;;;;;;2.50;100.00;94234.75;10313308;28;20030;-70
2021/03/10 09:14:12;;;;;;;64.63;29.08;;;;;;;2.70;100.00;94225.56;10302838;28;20026;-75
2021/03/10 09:19:12;;;;;;;71.15;34.25;;;;;;;2.67;100.00;94232.16;10293734;28;20170;-74
2021/03/10 09:24:13;;;;;;;70.18;32.63;;;;;;;2.68;100.00;94228.47;10297427;28;20121;-75
2021/03/10 09:29:13;;;;;;;64.80;32.87;;;;;;;2.71;100.00;94230.66;10303705;28;20031;-74
2021/03/10 09:34:13;;;;;;;57.83;28.20;;;;;;;2.67;100.00;94231.38;10282297;28;20058;-76
2021/03/10 09:39:15;;;;;;;59.10;28.67;;;;;;;2.64;100.00;94242.44;10282114;28;20306;-76
2021/03/10 09:44:15;;;;;;;55.47;27.08;;;;;;;2.63;100.00;94244.28;10311676;28;20293;-76
2021/03/10 09:49:15;;;;;;;56.50;28.60;;;;;;;2.48;100.00;94234.16;10322401;28;20486;-74
2021/03/10 09:54:16;;;;;;;58.85;27.83;;;;;;;2.44;100.00;94243.63;10320419;28;20800;-74
2021/03/10 09:59:16;;;;;;;54.75;27.42;;;;;;;2.35;100.00;94229.13;10327922;28;20037;-75
2021/03/10 10:04:16;;;;;;;49.37;23.67;;;;;;;2.33;100.00;94224.06;10328277;28;20027;-76
2021/03/10 10:09:17;;;;;;;51.17;25.87;;;;;;;2.41;100.00;94220.25;10327508;28;20049;-74
2021/03/10 10:14:17;;;;;;;55.60;24.20;;;;;;;2.45;100.00;94223.25;10323546;28;20288;-80
2021/03/10 10:19:17;;;;;;;45.40;22.37;;;;;;;2.46;100.00;94236.25;10333359;28;20273;-76
2021/03/10 10:24:18;;;;;;;43.77;21.67;;;;;;;2.61;100.00;94224.31;10322658;28;20118;-78
2021/03/10 10:29:19;;;;;;;46.70;21.65;;;;;;;2.59;100.00;94229.88;10305854;28;20286;-79
2021/03/10 10:34:19;;;;;;;35.47;18.52;;;;;;;2.62;100.00;94234.69;10290826;28;20027;-77
2021/03/10 10:39:20;;;;;;;51.80;24.70;;;;;;;2.56;100.00;94238.31;10309317;28;20431;-76
2021/03/10 10:44:20;;;;;;;42.97;21.23;;;;;;;2.66;100.00;94243.81;10313134;28;20034;-75
2021/03/10 10:49:21;;;;;;;45.10;21.83;;;;;;;2.76;100.00;94235.22;10305557;28;20277;-75
2021/03/10 10:54:24;;;;;;;49.17;24.23;;;;;;;2.95;100.00;94232.41;10300363;28;20027;-75
2021/03/10 10:59:26;;;;;;;45.58;21.85;;;;;;;2.98;100.00;94227.41;10305262;28;20027;-74
2021/03/10 11:04:26;;;;;;;42.53;22.00;;;;;;;3.05;100.00;94221.97;10310258;28;20030;-74
2021/03/10 11:09:26;;;;;;;42.53;20.53;;;;;;;3.06;100.00;94224.38;10313536;28;20038;-73
2021/03/10 11:14:27;;;;;;;44.15;22.95;;;;;;;3.06;100.00;94224.38;10303636;28;21026;-73
2021/03/10 11:19:27;;;;;;;39.73;20.10;;;;;;;3.12;100.00;94233.25;10304652;28;20085;-72
2021/03/10 11:24:27;;;;;;;31.95;18.50;;;;;;;3.07;100.00;94233.16;10303410;28;20034;-72
2021/03/10 11:29:28;;;;;;;33.70;17.30;;;;;;;3.06;100.00;94228.91;10304480;28;20037;-78
2021/03/10 11:34:29;;;;;;;31.08;18.02;;;;;;;3.06;100.00;94227.03;10304731;28;20027;-74
2021/03/10 11:39:30;;;;;;;27.60;15.68;;;;;;;2.96;100.00;94223.38;10310546;28;20105;-74
2021/03/10 11:44:31;;;;;;;36.35;18.30;;;;;;;2.82;100.00;94221.03;10324246;28;20038;-74
2021/03/10 11:49:31;;;;;;;24.50;14.50;;;;;;;2.74;100.00;94214.25;10324343;28;20541;-76
2021/03/10 11:54:32;;;;;;;26.60;13.30;;;;;;;2.59;100.00;94221.13;10322127;28;20045;-76
2021/03/10 11:59:32;;;;;;;23.05;13.35;;;;;;;2.49;100.00;94211.91;10319086;28;20069;-75
2021/03/10 12:04:33;;;;;;;17.88;10.93;;;;;;;2.51;100.00;94214.31;10280532;28;20049;-75
2021/03/10 12:09:33;;;;;;;15.77;10.77;;;;;;;2.51;100.00;94211.66;10284160;28;20117;-75
2021/03/10 12:14:34;;;;;;;20.40;11.25;;;;;;;2.22;100.00;94215.09;10284319;28;20082;-75
2021/03/10 12:19:35;;;;;;;26.38;13.68;;;;;;;2.13;100.00;94211.19;10285981;28;20042;-75
2021/03/10 12:24:36;;;;;;;24.45;14.50;;;;;;;1.78;100.00;94213.88;10324098;28;20034;-75
2021/03/10 12:29:36;;;;;;;28.00;16.65;;;;;;;1.15;100.00;94218.78;10323876;28;20401;-75
2021/03/10 12:34:36;;;;;;;38.35;18.98;;;;;;;0.73;100.00;94218.78;10315622;28;20022;-75
2021/03/10 12:39:38;;;;;;;40.97;21.17;;;;;;;0.67;100.00;94229.22;10318267;28;20149;-75
2021/03/10 12:44:40;;;;;;;34.60;18.10;;;;;;;0.92;100.00;94232.75;10323262;28;20096;-75
2021/03/10 12:49:40;;;;;;;33.20;20.08;;;;;;;1.15;100.00;94234.66;10323210;28;20092;-74
2021/03/10 12:54:41;;;;;;;32.77;19.17;;;;;;;0.91;100.00;94239.06;10323702;28;20053;-75
2021/03/10 12:59:41;;;;;;;30.17;19.15;;;;;;;0.83;100.00;94245.47;10322541;28;20437;-74
2021/03/10 13:04:41;;;;;;;30.53;18.93;;;;;;;1.05;100.00;94253.72;10323049;28;20057;-75
2021/03/10 13:09:42;;;;;;;29.85;20.48;;;;;;;1.25;100.00;94255.28;10322264;28;20113;-74
2021/03/10 13:14:43;;;;;;;28.60;18.30;;;;;;;1.38;100.00;94263.00;10323035;28;20036;-74
2021/03/10 13:19:43;;;;;;;33.20;18.73;;;;;;;1.42;100.00;94266.00;10321774;28;20065;-76
2021/03/10 13:24:43;;;;;;;31.08;18.02;;;;;;;1.49;100.00;94277.31;10322132;28;20049;-77
2021/03/10 13:29:44;;;;;;;22.60;16.33;;;;;;;1.28;100.00;94284.72;10339474;28;20022;-77
2021/03/10 13:34:44;;;;;;;28.57;16.37;;;;;;;1.33;100.00;94276.13;10339358;28;20022;-76
2021/03/10 13:39:44;;;;;;;25.57;14.70;;;;;;;1.30;100.00;94276.59;10322535;28;20863;-76
2021/03/10 13:44:45;;;;;;;24.17;15.30;;;;;;;1.37;100.00;94290.53;10322522;28;20319;-76
2021/03/10 13:49:45;;;;;;;31.00;16.40;;;;;;;1.01;100.00;94298.34;10321182;28;20328;-76
2021/03/10 13:54:46;;;;;;;29.70;16.07;;;;;;;0.88;100.00;94305.66;10323403;28;20034;-76
2021/03/10 13:59:46;;;;;;;27.52;17.75;;;;;;;1.01;100.00;94301.00;10346751;28;20308;-75
2021/03/10 14:04:47;;;;;;;23.00;13.73;;;;;;;1.02;100.00;94313.19;10362576;28;20033;-76
2021/03/10 14:09:47;;;;;;;22.83;14.27;;;;;;;1.06;100.00;94313.56;10303728;28;20084;-76
2021/03/10 14:14:48;;;;;;;23.27;14.02;;;;;;;1.06;100.00;94310.91;10362618;28;20541;-76
2021/03/10 14:19:48;;;;;;;23.92;14.68;;;;;;;1.05;100.00;94304.00;10351148;28;20142;-76
2021/03/10 14:24:48;;;;;;;25.63;16.47;;;;;;;0.73;100.00;94303.41;10314152;28;20045;-76
2021/03/10 14:29:49;;;;;;;28.20;16.87;;;;;;;0.31;100.00;94315.44;10333867;28;20034;-76
2021/03/10 14:34:49;;;;;;;28.50;18.35;;;;;;;-0.01;100.00;94309.47;10320534;28;20109;-76
2021/03/10 14:39:50;;;;;;;31.48;20.25;;;;;;;-0.06;100.00;94330.44;10311330;28;20478;-76
2021/03/10 14:44:50;;;;;;;36.60;21.20;;;;;;;0.05;100.00;94327.09;10312027;28;20031;-77
2021/03/10 14:49:50;;;;;;;31.57;18.37;;;;;;;-0.01;100.00;94325.31;10287983;28;20027;-74
2021/03/10 14:54:51;;;;;;;31.90;20.80;;;;;;;-0.06;100.00;94331.25;10297483;28;20282;-76
2021/03/10 15:04:59;;;;;;;36.30;21.38;;;;;;;-0.08;100.00;94346.50;10320405;28;20870;-75
2021/03/10 15:10:00;;;;;;;39.67;20.33;;;;;;;-0.24;100.00;94342.59;10310712;28;20092;-73
2021/03/10 15:15:00;;;;;;;33.67;19.50;;;;;;;-0.33;100.00;94359.72;10307178;28;20101;-74
2021/03/10 15:20:02;;;;;;;40.95;20.92;;;;;;;-0.10;100.00;94369.66;10326980;28;20671;-77
2021/03/10 15:25:08;;;;;;;37.65;23.02;;;;;;;0.05;100.00;94369.34;10318686;28;20141;-70
2021/03/10 15:30:11;;;;;;;29.85;19.92;;;;;;;0.18;100.00;94376.34;10286708;28;20039;-71
2021/03/10 15:35:15;;;;;;;28.63;17.88;;;;;;;0.34;100.00;94375.00;10284843;28;20014;-72
2021/03/10 15:40:19;;;;;;;30.33;16.08;;;;;;;0.44;100.00;94380.59;10285615;28;20030;-77
2021/03/10 15:45:20;;;;;;;22.65;16.25;;;;;;;0.44;100.00;94383.22;10301906;28;20114;-70
2021/03/10 15:50:21;;;;;;;20.52;13.00;;;;;;;0.38;100.00;94381.47;10323562;28;20512;-82
2021/03/10 15:55:21;;;;;;;33.78;17.73;;;;;;;0.38;100.00;94386.75;10298604;28;20410;-77
2021/03/10 16:00:22;;;;;;;36.00;19.23;;;;;;;-0.26;100.00;94386.88;10338626;28;20056;-77
2021/03/10 16:05:24;;;;;;;44.17;25.33;;;;;;;-0.62;100.00;94395.44;10321922;28;20293;-75
2021/03/10 16:10:25;;;;;;;35.20;20.70;;;;;;;-0.63;100.00;94405.16;10323126;28;20441;-75
2021/03/10 16:15:26;;;;;;;42.45;21.42;;;;;;;-0.69;100.00;94403.38;10318956;28;20030;-76
2021/03/10 16:20:26;;;;;;;34.30;21.45;;;;;;;-0.71;100.00;94416.00;10295983;28;20031;-75
2021/03/10 16:25:27;;;;;;;33.80;22.25;;;;;;;-0.75;100.00;94420.06;10306636;28;20049;-73
2021/03/10 16:30:27;;;;;;;37.83;18.92;;;;;;;-0.67;100.00;94435.66;10322150;28;20022;-73
2021/03/10 16:35:28;;;;;;;29.17;18.50;;;;;;;-0.68;100.00;94436.66;10323501;28;20022;-74
2021/03/10 16:40:28;;;;;;;43.22;19.45;;;;;;;-0.44;100.00;94455.44;10322955;28;20030;-75
2021/03/10 16:45:30;;;;;;;31.13;18.35;;;;;;;-0.69;100.00;94448.25;10321491;28;20428;-75
2021/03/10 16:50:31;;;;;;;26.92;17.70;;;;;;;-0.62;100.00;94470.13;10323396;28;20099;-73
2021/03/10 16:55:32;;;;;;;31.47;17.23;;;;;;;-0.44;100.00;94471.28;10323030;28;20037;-69
2021/03/10 17:00:32;;;;;;;26.17;17.17;;;;;;;-0.18;100.00;94489.63;10321507;28;20309;-69
2021/03/10 17:05:33;;;;;;;21.17;12.43;;;;;;;-0.05;100.00;94495.84;10321269;28;20108;-76
2021/03/10 17:10:33;;;;;;;19.65;11.68;;;;;;;-0.50;100.00;94501.13;10321982;28;20030;-76
2021/03/10 17:15:34;;;;;;;19.13;11.90;;;;;;;-0.65;100.00;94496.94;10323101;28;20034;-73
2021/03/10 17:20:34;;;;;;;20.67;12.65;;;;;;;-0.78;100.00;94499.63;10321493;28;20273;-75
2021/03/10 17:25:34;;;;;;;22.20;15.30;;;;;;;-0.85;100.00;94512.84;10321235;28;20071;-75
2021/03/10 17:30:36;;;;;;;25.95;15.95;;;;;;;-0.77;100.00;94528.44;10321817;28;20360;-75
2021/03/10 17:35:36;;;;;;;24.05;16.10;;;;;;;-0.53;100.00;94529.59;10337330;28;20818;-74
2021/03/10 17:40:37;;;;;;;27.45;16.52;;;;;;;-0.40;100.00;94549.03;10311065;28;20129;-73
2021/03/10 17:45:38;;;;;;;28.63;14.88;;;;;;;-0.32;100.00;94558.53;10308256;28;20058;-74
2021/03/10 17:50:40;;;;;;;26.65;17.30;;;;;;;-0.32;100.00;94553.25;10318772;28;20026;-74
2021/03/10 17:55:41;;;;;;;27.85;14.15;;;;;;;-0.26;100.00;94540.03;10319568;28;20015;-74
2021/03/10 18:00:41;;;;;;;28.00;16.37;;;;;;;-0.36;100.00;94539.69;10318002;28;20425;-74
2021/03/10 18:05:41;;;;;;;26.23;14.43;;;;;;;-0.20;100.00;94533.91;10319814;28;20411;-75
2021/03/10 18:10:42;;;;;;;23.23;13.80;;;;;;;-0.11;100.00;94546.88;10318984;28;20117;-77
2021/03/10 18:15:42;;;;;;;28.45;16.15;;;;;;;-0.21;100.00;94536.75;10319621;28;20034;-76
2021/03/10 18:20:43;;;;;;;25.10;15.68;;;;;;;-0.10;100.00;94530.81;10330934;28;20034;-77
2021/03/10 18:25:43;;;;;;;27.17;15.68;;;;;;;-0.23;100.00;94534.31;10327212;28;20035;-77
2021/03/10 18:30:44;;;;;;;24.35;15.45;;;;;;;-0.53;100.00;94526.13;10326431;28;20113;-76
2021/03/10 18:35:44;;;;;;;23.27;15.63;;;;;;;-0.61;100.00;94537.75;10327182;28;20130;-78
2021/03/10 18:40:45;;;;;;;27.00;16.50;;;;;;;-0.72;100.00;94548.94;10327356;28;20030;-78
2021/03/10 18:45:45;;;;;;;33.90;19.63;;;;;;;-0.76;100.00;94553.00;10327280;28;20368;-77
2021/03/10 18:50:47;;;;;;;30.55;18.70;;;;;;;-0.54;100.00;94549.09;10328318;28;21174;-77
2021/03/10 18:55:47;;;;;;;55.20;24.40;;;;;;;-0.41;100.00;94542.94;10327454;28;20014;-73
2021/03/10 19:00:48;;;;;;;30.13;15.20;;;;;;;-0.32;100.00;94559.38;10328006;28;20570;-73
2021/03/10 19:05:48;;;;;;;23.60;15.32;;;;;;;-0.20;100.00;94559.50;10328351;28;21124;-73
2021/03/10 19:10:49;;;;;;;22.38;14.13;;;;;;;-0.32;100.00;94555.91;10322985;28;20489;-73
2021/03/10 19:15:49;;;;;;;29.23;17.03;;;;;;;-0.31;100.00;94562.81;10287436;28;20102;-73
2021/03/10 19:20:50;;;;;;;23.42;15.85;;;;;;;-0.52;100.00;94557.63;10287643;28;20794;-74
2021/03/10 19:25:51;;;;;;;24.73;15.70;;;;;;;-0.32;100.00;94561.19;10286607;28;20027;-73
2021/03/10 19:30:52;;;;;;;24.45;14.70;;;;;;;-0.27;100.00;94561.38;10285514;28;20626;-73
2021/03/10 19:35:52;;;;;;;26.77;14.38;;;;;;;-0.71;100.00;94569.84;10301692;28;20015;-72
2021/03/10 19:40:52;;;;;;;25.27;14.90;;;;;;;-0.86;100.00;94566.63;10286110;28;20022;-72
2021/03/10 19:45:53;;;;;;;25.65;15.00;;;;;;;-0.81;100.00;94574.75;10297182;28;20320;-73
2021/03/10 19:50:53;;;;;;;31.33;19.10;;;;;;;-0.91;100.00;94583.09;10341175;28;20092;-73
2021/03/10 19:55:54;;;;;;;41.40;24.50;;;;;;;-1.08;100.00;94576.59;10303038;28;20030;-73
2021/03/10 20:00:55;;;;;;;30.50;19.88;;;;;;;-0.93;100.00;94581.66;10310072;28;20112;-73
2021/03/10 20:05:55;;;;;;;23.33;15.97;;;;;;;-1.15;100.00;94579.22;10284888;28;20452;-73
2021/03/10 20:10:56;;;;;;;27.70;14.30;;;;;;;-1.34;100.00;94580.88;10285579;28;21021;-73
2021/03/10 20:15:56;;;;;;;28.57;16.97;;;;;;;-1.34;100.00;94580.06;10284127;28;20027;-73
2021/03/10 20:20:56;;;;;;;29.47;15.50;;;;;;;-1.36;100.00;94582.09;10285191;28;20277;-72
2021/03/10 20:25:57;;;;;;;26.38;13.45;;;;;;;-1.34;100.00;94585.31;10301109;28;20811;-72
2021/03/10 20:30:57;;;;;;;23.88;13.10;;;;;;;-1.37;100.00;94581.25;10324037;28;20030;-72
2021/03/10 20:35:58;;;;;;;23.92;12.75;;;;;;;-1.38;100.00;94575.19;10314332;28;20045;-73
2021/03/10 20:40:59;;;;;;;16.73;10.70;;;;;;;-1.34;100.00;94578.25;10284404;28;20026;-73
2021/03/10 20:45:59;;;;;;;22.58;13.80;;;;;;;-1.33;100.00;94582.47;10319491;28;20307;-72
2021/03/10 20:51:00;;;;;;;26.13;14.33;;;;;;;-1.40;100.00;94600.94;10323668;28;20036;-72
2021/03/10 20:56:00;;;;;;;20.03;12.07;;;;;;;-1.49;100.00;94590.78;10322208;28;20351;-72
2021/03/10 21:01:01;;;;;;;19.95;12.75;;;;;;;-1.42;100.00;94584.50;10320670;28;20309;-72
2021/03/10 21:06:02;;;;;;;21.63;14.05;;;;;;;-1.40;100.00;94592.22;10322062;28;20030;-72
2021/03/10 21:11:03;;;;;;;22.15;13.00;;;;;;;-1.24;100.00;94581.28;10323722;28;20034;-72
2021/03/10 21:16:03;;;;;;;22.88;13.32;;;;;;;-1.38;100.00;94577.81;10322849;28;20034;-73
2021/03/10 21:21:04;;;;;;;21.20;13.95;;;;;;;-1.50;100.00;94592.63;10321317;28;20033;-72
2021/03/10 21:26:05;;;;;;;23.02;13.00;;;;;;;-1.44;100.00;94596.28;10322947;28;20038;-72
2021/03/10 21:31:05;;;;;;;23.02;12.18;;;;;;;-1.41;100.00;94599.31;10323300;28;20034;-72
2021/03/10 21:36:06;;;;;;;19.80;11.33;;;;;;;-1.28;100.00;94608.25;10322145;28;20023;-72
2021/03/10 21:41:07;;;;;;;28.17;13.30;;;;;;;-1.10;100.00;94618.19;10322596;28;20081;-73
2021/03/10 21:46:07;;;;;;;18.80;10.82;;;;;;;-0.97;100.00;94623.44;10321031;28;20026;-72
2021/03/10 21:51:08;;;;;;;20.58;12.45;;;;;;;-1.30;100.00;94632.16;10320968;28;20026;-72
2021/03/10 21:56:08;;;;;;;21.50;12.27;;;;;;;-1.09;100.00;94628.53;10325944;28;20039;-72
2021/03/10 22:01:09;;;;;;;19.60;10.70;;;;;;;-1.19;100.00;94629.97;10330193;28;20100;-72
2021/03/10 22:06:09;;;;;;;25.43;11.43;;;;;;;-1.30;100.00;94623.44;10329889;28;20064;-73
2021/03/10 22:11:09;;;;;;;18.13;11.45;;;;;;;-1.25;100.00;94632.38;10326933;28;20371;-73
2021/03/10 22:16:10;;;;;;;20.35;11.32;;;;;;;-1.04;100.00;94627.94;10317918;28;20040;-73
2021/03/10 22:21:12;;;;;;;20.77;13.20;;;;;;;-0.92;100.00;94617.56;10327995;28;20093;-74
2021/03/10 22:26:12;;;;;;;16.60;11.10;;;;;;;-0.91;100.00;94620.03;10329013;28;20049;-74
2021/03/10 22:31:12;;;;;;;18.38;11.40;;;;;;;-1.10;100.00;94605.00;10329843;28;20034;-72
2021/03/10 22:36:13;;;;;;;21.00;12.23;;;;;;;-1.24;100.00;94606.84;10327900;28;20027;-73
2021/03/10 22:41:13;;;;;;;20.73;10.70;;;;;;;-1.05;100.00;94607.84;10328829;28;20489;-73
2021/03/10 22:46:14;;;;;;;22.00;12.30;;;;;;;-1.17;100.00;94612.09;10328268;28;20775;-77
2021/03/10 22:51:14;;;;;;;18.08;11.90;;;;;;;-1.41;100.00;94616.94;10327721;28;20038;-77